Time;durP1;ratioP1;P1;durP2;ratioP2;P2;SDS_P1;SDS_P2;PMS_P1;PMS_P2;Temp;Humidity;BMP_temperature;BMP_pressure;BME280_temperature;BME280_humidity;BME280_pressure;Samples;Min_cycle;Max_cycle;Signal;HPM_P1;HPM_P2
2023/06/04 00:02:25;;;;;;;8.18;4.93;;;16.50;1.00;;;;;;7350970;19;20019;-68
2023/06/04 00:04:56;;;;;;;6.80;4.82;;;16.50;1.00;;;;;;7351562;19;20029;-69
2023/06/04 00:07:26;;;;;;;8.57;4.25;;;16.40;1.00;;;;;;7352292;19;20608;-68
2023/06/04 00:09:56;;;;;;;7.57;4.20;;;16.40;1.00;;;;;;7352358;19;20010;-69
2023/06/04 00:12:26;;;;;;;5.82;4.22;;;16.30;1.00;;;;;;7351096;19;20122;-69
2023/06/04 00:14:58;;;;;;;10.50;4.85;;;16.30;1.00;;;;;;7372747;19;20030;-69
2023/06/04 00:17:28;;;;;;;6.85;4.63;;;16.30;1.00;;;;;;7351034;19;20416;-68
2023/06/04 00:19:58;;;;;;;6.00;4.78;;;16.30;1.00;;;;;;7348320;19;20026;-68
2023/06/04 00:22:28;;;;;;;5.80;4.80;;;16.20;1.00;;;;;;7351051;19;20015;-68
2023/06/04 00:24:58;;;;;;;5.50;4.47;;;16.20;1.00;;;;;;7350950;19;20021;-68
2023/06/04 00:27:28;;;;;;;8.30;4.70;;;16.20;1.00;;;;;;7351515;19;20459;-68
2023/06/04 00:30:00;;;;;;;9.60;4.85;;;16.20;1.00;;;;;;7373903;19;20467;-69
2023/06/04 00:32:30;;;;;;;6.15;4.53;;;16.10;1.00;;;;;;7350227;19;20010;-68
2023/06/04 00:35:01;;;;;;;6.47;4.40;;;16.00;1.00;;;;;;7350433;19;20010;-68
2023/06/04 00:37:31;;;;;;;8.30;4.57;;;15.90;1.00;;;;;;7351491;19;20010;-68
2023/06/04 00:40:02;;;;;;;6.68;4.65;;;15.90;1.00;;;;;;7349324;19;20011;-68
2023/06/04 00:42:32;;;;;;;7.22;4.00;;;15.80;1.00;;;;;;7350342;19;20593;-69
2023/06/04 00:45:07;;;;;;;5.60;4.18;;;15.70;1.00;;;;;;7371315;19;20383;-68
2023/06/04 00:47:38;;;;;;;6.68;4.38;;;15.70;1.00;;;;;;7350655;19;20026;-68
2023/06/04 00:50:10;;;;;;;7.90;4.18;;;15.70;1.00;;;;;;7349402;19;20018;-67
2023/06/04 00:52:40;;;;;;;9.77;4.05;;;15.60;1.00;;;;;;7354211;19;20026;-68
2023/06/04 00:55:12;;;;;;;5.15;3.65;;;15.60;1.00;;;;;;7349283;19;20038;-68
2023/06/04 00:57:42;;;;;;;6.22;4.35;;;15.60;1.00;;;;;;7350354;19;20622;-69
2023/06/04 01:00:15;;;;;;;5.28;3.88;;;15.50;1.00;;;;;;7348725;19;20394;-69
2023/06/04 01:02:50;;;;;;;6.10;3.88;;;15.50;1.00;;;;;;7372045;19;20018;-68
2023/06/04 01:05:28;;;;;;;6.55;3.67;;;15.50;1.00;;;;;;7349590;19;20013;-69
2023/06/04 01:08:01;;;;;;;5.10;3.20;;;15.50;1.00;;;;;;7350490;19;20014;-67
2023/06/04 01:10:31;;;;;;;7.55;4.10;;;15.50;1.00;;;;;;7349525;19;20022;-68
2023/06/04 01:13:01;;;;;;;4.88;3.28;;;15.50;1.00;;;;;;7350715;19;20056;-68
2023/06/04 01:15:33;;;;;;;5.72;3.30;;;15.50;1.00;;;;;;7349808;19;20019;-68
2023/06/04 01:18:06;;;;;;;5.90;3.55;;;15.40;1.00;;;;;;7372220;19;20754;-67
2023/06/04 01:20:40;;;;;;;4.95;3.60;;;15.40;1.00;;;;;;7347142;19;20371;-69
2023/06/04 01:23:36;;;;;;;6.22;3.60;;;15.40;1.00;;;;;;7349897;19;20010;-69
2023/06/04 01:26:07;;;;;;;7.32;3.35;;;15.30;1.00;;;;;;7353740;19;20018;-68
2023/06/04 01:28:37;;;;;;;4.47;3.00;;;15.40;1.00;;;;;;7357360;19;20021;-68
2023/06/04 01:31:12;;;;;;;6.43;3.63;;;15.40;1.00;;;;;;7338984;19;20046;-69
2023/06/04 01:33:42;;;;;;;;;;;15.40;1.00;;;;;;7357056;19;20022;-69
2023/06/04 01:36:12;;;;;;;6.50;2.95;;;15.40;1.00;;;;;;7356663;19;19915;-68
2023/06/04 01:38:42;;;;;;;6.72;3.20;;;15.40;1.00;;;;;;7377374;19;20011;-68
2023/06/04 01:41:12;;;;;;;6.53;3.70;;;15.30;1.00;;;;;;7354963;19;20023;-68
2023/06/04 01:43:42;;;;;;;6.07;3.63;;;15.30;1.00;;;;;;7355939;19;20740;-68
2023/06/04 01:46:15;;;;;;;3.90;3.28;;;15.20;1.00;;;;;;7357432;19;20124;-68
2023/06/04 01:48:48;;;;;;;6.35;3.60;;;15.10;1.00;;;;;;7358986;19;20021;-68
2023/06/04 01:51:18;;;;;;;5.50;3.38;;;15.00;1.00;;;;;;7375552;19;20014;-68
2023/06/04 01:53:48;;;;;;;4.82;3.25;;;15.00;1.00;;;;;;7358898;19;20010;-68
2023/06/04 01:56:20;;;;;;;4.60;3.30;;;14.90;1.00;;;;;;7357486;19;20036;-68
2023/06/04 01:58:51;;;;;;;7.82;3.65;;;15.00;1.00;;;;;;7356344;19;20087;-67
2023/06/04 02:01:24;;;;;;;4.57;3.53;;;14.90;1.00;;;;;;7355092;19;20015;-67
2023/06/04 02:03:54;;;;;;;7.38;3.47;;;14.90;1.00;;;;;;7355969;19;20018;-67
2023/06/04 02:06:24;;;;;;;4.78;3.38;;;14.90;1.00;;;;;;7359249;19;20086;-67
2023/06/04 02:08:54;;;;;;;9.82;3.00;;;14.80;1.00;;;;;;7376344;19;20517;-68
2023/06/04 02:11:24;;;;;;;3.60;2.88;;;14.80;1.00;;;;;;7354810;19;20014;-68
2023/06/04 02:13:55;;;;;;;8.95;2.97;;;14.70;1.00;;;;;;7356481;19;20014;-68
2023/06/04 02:16:27;;;;;;;4.53;3.10;;;14.60;1.00;;;;;;7355825;19;20798;-68
2023/06/04 02:18:58;;;;;;;6.93;3.75;;;14.60;1.00;;;;;;7355738;19;20300;-68
2023/06/04 02:21:28;;;;;;;6.40;3.30;;;14.60;1.00;;;;;;7355052;19;20125;-68
2023/06/04 02:23:58;;;;;;;7.97;3.35;;;14.50;1.00;;;;;;7376180;19;20020;-68
2023/06/04 02:26:29;;;;;;;6.43;3.13;;;14.40;1.00;;;;;;7355102;19;20082;-68
2023/06/04 02:28:59;;;;;;;5.72;3.00;;;14.30;1.00;;;;;;7355802;19;20021;-68
2023/06/04 02:31:31;;;;;;;4.43;3.10;;;14.30;1.00;;;;;;7353806;19;20014;-68
2023/06/04 02:34:01;;;;;;;6.47;3.13;;;14.30;1.00;;;;;;7353534;19;20027;-67
2023/06/04 02:36:32;;;;;;;4.20;2.88;;;14.10;1.00;;;;;;7352219;19;20027;-68
2023/06/04 02:39:03;;;;;;;5.55;2.90;;;14.10;1.00;;;;;;7375975;19;20052;-68
2023/06/04 02:41:33;;;;;;;4.10;2.92;;;14.00;1.00;;;;;;7353971;19;20436;-68
2023/06/04 02:44:02;;;;;;;5.13;3.25;;;13.90;1.00;;;;;;7353535;19;20086;-68
2023/06/04 02:46:35;;;;;;;5.82;3.17;;;13.80;1.00;;;;;;7355090;19;20010;-68
2023/06/04 02:49:05;;;;;;;4.40;2.95;;;13.70;1.00;;;;;;7353371;19;20105;-67
2023/06/04 02:51:35;;;;;;;5.32;3.10;;;13.70;1.00;;;;;;7352490;19;20018;-68
2023/06/04 02:54:05;;;;;;;6.22;3.63;;;13.70;1.00;;;;;;7374575;19;20010;-68
2023/06/04 02:56:36;;;;;;;4.72;3.17;;;13.70;1.00;;;;;;7353716;19;20015;-68
2023/06/04 02:59:09;;;;;;;6.32;3.25;;;13.60;1.00;;;;;;7352964;19;20021;-68
2023/06/04 03:01:45;;;;;;;6.88;3.33;;;13.70;1.00;;;;;;7351237;19;20015;-68
2023/06/04 03:04:15;;;;;;;4.75;3.13;;;13.70;1.00;;;;;;7377254;19;20010;-68
2023/06/04 03:06:47;;;;;;;6.60;3.60;;;13.60;1.00;;;;;;7357661;19;20014;-67
2023/06/04 03:09:17;;;;;;;6.65;3.05;;;13.60;1.00;;;;;;7352490;19;20478;-69
2023/06/04 03:11:47;;;;;;;5.03;3.22;;;13.60;1.00;;;;;;7372815;19;20093;-67
2023/06/04 03:14:17;;;;;;;3.70;2.58;;;13.60;1.00;;;;;;7352295;19;20015;-68
2023/06/04 03:16:51;;;;;;;4.43;3.00;;;13.60;1.00;;;;;;7353701;19;20015;-67
2023/06/04 03:19:21;;;;;;;4.90;3.03;;;13.60;1.00;;;;;;7352648;19;20462;-67
2023/06/04 03:21:52;;;;;;;3.72;2.92;;;13.60;1.00;;;;;;7352893;19;20014;-68
2023/06/04 03:24:22;;;;;;;7.40;2.85;;;13.50;1.00;;;;;;7352186;19;20063;-67
2023/06/04 03:26:52;;;;;;;4.80;2.60;;;13.50;1.00;;;;;;7375466;19;20785;-67
2023/06/04 03:29:22;;;;;;;3.40;2.60;;;13.40;1.00;;;;;;7352786;19;20968;-68
2023/06/04 03:31:54;;;;;;;4.45;2.78;;;13.40;1.00;;;;;;7351663;19;20613;-67
2023/06/04 03:34:25;;;;;;;6.80;2.65;;;13.40;1.00;;;;;;7352554;19;20024;-67
2023/06/04 03:36:55;;;;;;;4.72;2.65;;;13.30;1.00;;;;;;7353141;19;20018;-67
2023/06/04 03:39:25;;;;;;;5.15;2.78;;;13.40;1.00;;;;;;7351967;19;20025;-67
2023/06/04 03:41:56;;;;;;;3.80;2.58;;;13.70;1.00;;;;;;7373630;19;20506;-67
2023/06/04 03:44:26;;;;;;;5.28;2.92;;;13.80;1.00;;;;;;7351288;19;20014;-68
2023/06/04 03:46:58;;;;;;;3.63;2.47;;;13.70;1.00;;;;;;7352313;19;20057;-67
2023/06/04 03:49:28;;;;;;;5.15;2.88;;;13.80;1.00;;;;;;7351456;19;20537;-67
2023/06/04 03:51:58;;;;;;;5.45;2.50;;;14.30;1.00;;;;;;7350686;19;20034;-67
2023/06/04 03:54:28;;;;;;;2.90;2.08;;;14.10;1.00;;;;;;7351239;19;20794;-67
2023/06/04 03:56:58;;;;;;;3.08;2.40;;;13.80;1.00;;;;;;7373998;19;20408;-67
2023/06/04 03:59:28;;;;;;;5.28;2.38;;;13.70;1.00;;;;;;7352079;19;20018;-67
2023/06/04 04:02:01;;;;;;;5.50;2.38;;;13.60;1.00;;;;;;7355058;19;20048;-67
2023/06/04 04:04:32;;;;;;;3.63;2.20;;;13.90;1.00;;;;;;7354014;19;20030;-68
2023/06/04 04:07:02;;;;;;;4.18;2.40;;;13.90;1.00;;;;;;7352017;19;20411;-68
2023/06/04 04:09:33;;;;;;;3.63;2.20;;;13.80;1.00;;;;;;7351003;19;20038;-68
2023/06/04 04:12:02;;;;;;;4.35;2.38;;;14.10;1.00;;;;;;7370892;19;20011;-67
2023/06/04 04:14:32;;;;;;;5.47;2.25;;;14.40;1.00;;;;;;7350535;19;20010;-68
2023/06/04 04:17:06;;;;;;;7.65;2.22;;;14.70;1.00;;;;;;7351581;19;20028;-67
2023/06/04 04:19:36;;;;;;;4.60;2.28;;;14.20;1.00;;;;;;7350735;19;20014;-69
2023/06/04 04:22:06;;;;;;;4.53;1.90;;;13.80;1.00;;;;;;7351835;19;20017;-67
2023/06/04 04:24:37;;;;;;;4.00;2.30;;;13.90;1.00;;;;;;7351126;19;20067;-67
2023/06/04 04:27:10;;;;;;;2.47;1.80;;;13.90;1.00;;;;;;7373037;19;20078;-68
2023/06/04 04:29:42;;;;;;;2.77;1.80;;;14.00;1.00;;;;;;7352322;19;20011;-68
2023/06/04 04:32:16;;;;;;;6.70;2.28;;;16.10;1.00;;;;;;7349664;19;20019;-68
2023/06/04 04:34:54;;;;;;;3.47;2.00;;;17.50;1.00;;;;;;7350363;19;20021;-67
2023/06/04 04:37:25;;;;;;;6.32;2.35;;;17.70;1.00;;;;;;7351331;19;20478;-68
2023/06/04 04:39:55;;;;;;;3.53;2.15;;;18.20;1.00;;;;;;7349663;19;20023;-67
2023/06/04 04:42:25;;;;;;;3.20;2.10;;;18.80;1.00;;;;;;7350845;19;20014;-67
2023/06/04 04:44:55;;;;;;;3.70;2.15;;;18.30;1.00;;;;;;7371342;19;20304;-67
2023/06/04 04:47:28;;;;;;;4.07;2.10;;;18.10;1.00;;;;;;7350828;19;20056;-68
2023/06/04 04:49:58;;;;;;;7.72;2.30;;;18.60;1.00;;;;;;7348850;19;20830;-68
2023/06/04 04:52:28;;;;;;;5.00;1.95;;;18.70;1.00;;;;;;7350394;19;20494;-68
2023/06/04 04:54:58;;;;;;;3.42;1.80;;;17.60;1.00;;;;;;7350020;19;20034;-67
2023/06/04 04:57:28;;;;;;;3.65;1.70;;;16.90;1.00;;;;;;7354420;19;20018;-67
2023/06/04 04:59:58;;;;;;;3.75;1.65;;;16.50;1.00;;;;;;7371685;19;20022;-68
2023/06/04 05:02:30;;;;;;;4.10;2.13;;;15.60;1.00;;;;;;7358026;19;20006;-67
2023/06/04 05:05:00;;;;;;;4.72;1.85;;;15.30;1.00;;;;;;7358616;19;20102;-68
2023/06/04 05:07:30;;;;;;;4.53;1.98;;;15.30;1.00;;;;;;7357814;19;20101;-67
2023/06/04 05:10:00;;;;;;;3.83;1.85;;;15.20;1.00;;;;;;7356328;19;20022;-68
2023/06/04 05:12:33;;;;;;;3.38;1.90;;;14.90;1.00;;;;;;7355937;19;20018;-67
2023/06/04 05:15:03;;;;;;;2.70;1.90;;;14.90;1.00;;;;;;7378419;19;20014;-67
2023/06/04 05:17:35;;;;;;;3.78;2.03;;;14.80;1.00;;;;;;7356846;19;20133;-67
2023/06/04 05:20:11;;;;;;;3.40;2.30;;;14.70;1.00;;;;;;7354628;19;20019;-67
2023/06/04 05:22:42;;;;;;;4.68;2.03;;;14.60;1.00;;;;;;7356480;19;20368;-67
2023/06/04 05:25:12;;;;;;;3.78;2.17;;;14.70;1.00;;;;;;7356742;19;20399;-67
2023/06/04 05:27:43;;;;;;;3.03;1.70;;;14.80;1.00;;;;;;7357076;19;20014;-67
2023/06/04 05:30:14;;;;;;;4.90;2.25;;;16.20;1.00;;;;;;7379746;19;20037;-67
2023/06/04 05:32:47;;;;;;;7.38;2.13;;;15.50;1.00;;;;;;7354977;19;20018;-67
2023/06/04 05:35:17;;;;;;;3.55;2.03;;;15.10;1.00;;;;;;7354985;19;20006;-67
2023/06/04 05:37:53;;;;;;;3.05;1.80;;;15.00;1.00;;;;;;7356711;19;20006;-67
2023/06/04 05:40:24;;;;;;;3.33;2.05;;;14.90;1.00;;;;;;7355073;19;20497;-67
2023/06/04 05:42:54;;;;;;;3.95;2.17;;;16.00;1.00;;;;;;7356725;19;20007;-68
2023/06/04 05:45:24;;;;;;;3.63;2.22;;;18.30;1.00;;;;;;7355232;19;20307;-68
2023/06/04 05:47:59;;;;;;;2.70;2.10;;;18.30;1.00;;;;;;7378385;19;20047;-68
2023/06/04 05:50:31;;;;;;;4.00;2.20;;;19.70;1.00;;;;;;7353218;19;20021;-68
2023/06/04 05:53:01;;;;;;;5.93;2.08;;;19.50;1.00;;;;;;7358897;19;20090;-68
2023/06/04 05:55:31;;;;;;;3.10;1.90;;;19.50;1.00;;;;;;7356215;19;20011;-68
2023/06/04 05:58:02;;;;;;;4.47;2.10;;;19.80;1.00;;;;;;7356379;19;20090;-67
2023/06/04 06:00:32;;;;;;;4.72;2.17;;;19.10;1.00;;;;;;7353974;19;20022;-68
2023/06/04 06:03:06;;;;;;;4.47;1.95;;;19.90;1.00;;;;;;7379002;19;20018;-68
2023/06/04 06:05:36;;;;;;;3.17;1.92;;;18.10;1.00;;;;;;7357685;19;20481;-68
2023/06/04 06:08:06;;;;;;;7.80;2.33;;;18.30;1.00;;;;;;7355436;19;20011;-68
2023/06/04 06:10:37;;;;;;;2.85;1.85;;;17.90;1.00;;;;;;7353145;19;20018;-68
2023/06/04 06:13:07;;;;;;;4.65;1.90;;;17.20;1.00;;;;;;7354893;19;20006;-69
2023/06/04 06:15:37;;;;;;;4.95;2.00;;;17.40;1.00;;;;;;7354965;19;20021;-67
2023/06/04 06:18:09;;;;;;;5.35;1.90;;;17.50;1.00;;;;;;7377395;19;20740;-68
2023/06/04 06:20:39;;;;;;;3.03;1.80;;;17.80;1.00;;;;;;7352612;19;20074;-68
2023/06/04 06:23:10;;;;;;;4.00;1.95;;;17.80;1.00;;;;;;7354707;19;20021;-67
2023/06/04 06:25:40;;;;;;;3.38;1.98;;;18.20;1.00;;;;;;7354722;19;20086;-67
2023/06/04 06:28:10;;;;;;;4.32;1.95;;;18.50;1.00;;;;;;7355166;19;20014;-67
2023/06/04 06:30:40;;;;;;;5.47;2.03;;;19.30;1.00;;;;;;7357012;19;20021;-67
2023/06/04 06:33:13;;;;;;;3.05;1.95;;;19.60;1.00;;;;;;7374922;19;20018;-67
2023/06/04 06:35:46;;;;;;;3.60;2.17;;;20.40;1.00;;;;;;7353816;19;20085;-67
2023/06/04 06:38:16;;;;;;;6.00;2.10;;;20.60;1.00;;;;;;7353787;19;20094;-68
2023/06/04 06:40:48;;;;;;;2.83;2.00;;;19.50;1.00;;;;;;7353862;19;20627;-68
2023/06/04 06:43:18;;;;;;;4.75;2.03;;;19.30;1.00;;;;;;7354907;19;20014;-69
2023/06/04 06:45:48;;;;;;;7.85;2.10;;;18.10;1.00;;;;;;7354958;19;20094;-69
2023/06/04 06:48:20;;;;;;;5.00;1.67;;;18.60;1.00;;;;;;7354377;19;20014;-69
2023/06/04 06:50:50;;;;;;;3.78;1.90;;;19.00;1.00;;;;;;7376908;19;20022;-68
2023/06/04 06:53:20;;;;;;;3.08;1.80;;;18.80;1.00;;;;;;7351845;19;20014;-69
2023/06/04 06:55:50;;;;;;;2.95;1.88;;;18.90;1.00;;;;;;7353621;19;20019;-68
2023/06/04 06:58:20;;;;;;;3.45;1.70;;;19.50;1.00;;;;;;7353643;19;20007;-69
2023/06/04 07:00:50;;;;;;;3.80;1.88;;;19.30;1.00;;;;;;7352023;19;20019;-68
2023/06/04 07:03:23;;;;;;;6.05;1.80;;;19.00;1.00;;;;;;7355253;19;20033;-69
2023/06/04 07:05:53;;;;;;;2.70;1.70;;;19.20;1.00;;;;;;7379107;19;20026;-68
2023/06/04 07:08:23;;;;;;;3.97;1.85;;;19.10;1.00;;;;;;7352715;19;20015;-68
2023/06/04 07:10:53;;;;;;;5.05;2.15;;;18.90;1.00;;;;;;7352360;19;20043;-68
2023/06/04 07:13:23;;;;;;;5.82;1.73;;;19.20;1.00;;;;;;7352816;19;20628;-68
2023/06/04 07:15:52;;;;;;;6.53;1.83;;;19.40;1.00;;;;;;7353796;19;20050;-68
2023/06/04 07:18:25;;;;;;;2.88;1.85;;;19.60;1.00;;;;;;7353191;19;20018;-68
2023/06/04 07:20:55;;;;;;;5.07;1.75;;;19.50;1.00;;;;;;7372418;19;20028;-68
2023/06/04 07:23:27;;;;;;;2.97;1.73;;;19.50;1.00;;;;;;7350006;19;20331;-69
2023/06/04 07:25:57;;;;;;;5.93;1.70;;;19.90;1.00;;;;;;7353009;19;20011;-68
2023/06/04 07:28:27;;;;;;;4.22;1.88;;;19.90;1.00;;;;;;7352340;19;20367;-69
2023/06/04 07:30:58;;;;;;;3.38;1.80;;;19.60;1.00;;;;;;7351674;19;20018;-69
2023/06/04 07:33:30;;;;;;;3.63;1.70;;;19.90;1.00;;;;;;7351307;19;20035;-69
2023/06/04 07:36:00;;;;;;;5.78;2.00;;;20.40;1.00;;;;;;7374949;19;20021;-69
2023/06/04 07:38:31;;;;;;;3.17;2.03;;;20.40;1.00;;;;;;7351537;19;20018;-69
2023/06/04 07:41:01;;;;;;;4.60;1.98;;;20.50;1.00;;;;;;7351503;19;20058;-69
2023/06/04 07:43:31;;;;;;;3.38;1.90;;;19.90;1.00;;;;;;7351779;19;20018;-69
2023/06/04 07:46:01;;;;;;;5.13;1.92;;;20.20;1.00;;;;;;7355958;19;20751;-69
2023/06/04 07:48:33;;;;;;;4.32;2.25;;;20.60;1.00;;;;;;7355044;19;20014;-69
2023/06/04 07:51:05;;;;;;;4.15;1.88;;;20.20;1.00;;;;;;7370871;19;20247;-68
2023/06/04 07:53:35;;;;;;;4.15;2.17;;;20.40;1.00;;;;;;7350281;19;20014;-69
2023/06/04 07:56:06;;;;;;;2.75;1.83;;;20.50;1.00;;;;;;7351779;19;20022;-69
2023/06/04 07:58:35;;;;;;;2.63;1.85;;;21.00;1.00;;;;;;7352025;19;20015;-68
2023/06/04 08:01:06;;;;;;;5.25;2.05;;;20.50;1.00;;;;;;7350652;19;20075;-68
2023/06/04 08:03:40;;;;;;;3.13;2.15;;;20.20;1.00;;;;;;7351724;19;20037;-67
2023/06/04 08:06:10;;;;;;;;;;;19.60;1.00;;;;;;7377759;19;20029;-68
2023/06/04 08:08:41;;;;;;;3.95;2.20;;;19.70;1.00;;;;;;7351148;19;19914;-68
2023/06/04 08:11:11;;;;;;;3.70;2.30;;;19.90;1.00;;;;;;7350725;19;20006;-68
2023/06/04 08:13:43;;;;;;;2.40;1.83;;;20.00;1.00;;;;;;7350696;19;20445;-67
2023/06/04 08:16:13;;;;;;;2.92;1.90;;;19.90;1.00;;;;;;7351570;19;20027;-68
2023/06/04 08:19:06;;;;;;;4.43;2.25;;;20.50;1.00;;;;;;7350292;19;20021;-68
2023/06/04 08:21:45;;;;;;;4.90;2.13;;;20.80;1.00;;;;;;7350914;19;20015;-68
2023/06/04 08:24:24;;;;;;;2.30;1.90;;;20.90;1.00;;;;;;7350364;19;20037;-67
2023/06/04 08:27:14;;;;;;;3.92;2.33;;;21.00;1.00;;;;;;7364042;19;20487;-67
2023/06/04 08:29:56;;;;;;;3.35;2.10;;;21.00;1.00;;;;;;7375496;19;20379;-67
2023/06/04 08:32:46;;;;;;;6.03;1.90;;;20.80;1.00;;;;;;7350724;19;20011;-68
2023/06/04 08:35:23;;;;;;;4.22;2.10;;;20.50;1.00;;;;;;7356098;19;20040;-68
2023/06/04 08:37:53;;;;;;;5.65;2.55;;;21.20;1.00;;;;;;7358211;19;20387;-67
2023/06/04 08:40:23;;;;;;;3.70;2.00;;;21.30;1.00;;;;;;7358379;19;20045;-68
2023/06/04 08:42:58;;;;;;;3.05;2.15;;;21.30;1.00;;;;;;7360908;19;20014;-68
2023/06/04 08:45:28;;;;;;;3.85;2.40;;;21.60;1.00;;;;;;7356886;19;20013;-68
2023/06/04 08:47:59;;;;;;;2.92;1.90;;;21.20;1.00;;;;;;7379923;19;20653;-68
2023/06/04 08:50:32;;;;;;;3.92;2.03;;;21.10;1.00;;;;;;7355150;19;20010;-68
2023/06/04 08:53:02;;;;;;;3.45;2.35;;;21.40;1.00;;;;;;7357555;19;20494;-68
2023/06/04 08:55:33;;;;;;;4.75;2.17;;;21.30;1.00;;;;;;7357533;19;20042;-68
2023/06/04 08:58:03;;;;;;;3.13;2.30;;;21.30;1.00;;;;;;7358375;19;20014;-68
2023/06/04 09:00:33;;;;;;;4.85;2.65;;;21.30;1.00;;;;;;7355409;19;20015;-68
2023/06/04 09:03:05;;;;;;;4.10;2.20;;;21.50;1.00;;;;;;7380541;19;20113;-68
2023/06/04 09:05:39;;;;;;;4.03;2.05;;;21.90;1.00;;;;;;7356059;19;20014;-68
2023/06/04 09:08:13;;;;;;;3.67;2.22;;;21.60;1.00;;;;;;7356598;19;20605;-68
2023/06/04 09:10:44;;;;;;;4.43;2.15;;;21.40;1.00;;;;;;7356197;19;20010;-68
2023/06/04 09:13:16;;;;;;;7.32;2.25;;;21.80;1.00;;;;;;7357068;19;20014;-68
2023/06/04 09:15:46;;;;;;;3.65;2.28;;;21.90;1.00;;;;;;7356342;19;20010;-68
2023/06/04 09:18:16;;;;;;;6.50;2.53;;;22.20;1.00;;;;;;7356519;19;20019;-70
2023/06/04 09:20:48;;;;;;;3.95;2.20;;;21.80;1.00;;;;;;7376323;19;20420;-68
2023/06/04 09:23:18;;;;;;;3.80;2.22;;;22.30;1.00;;;;;;7356127;19;20038;-67
2023/06/04 09:25:48;;;;;;;5.22;2.17;;;22.70;1.00;;;;;;7356410;19;20053;-68
2023/06/04 09:28:18;;;;;;;4.00;2.28;;;22.70;1.00;;;;;;7356315;19;20006;-68
2023/06/04 09:30:53;;;;;;;4.97;2.10;;;22.50;1.00;;;;;;7358093;19;20074;-67
2023/06/04 09:33:26;;;;;;;4.80;2.20;;;22.30;1.00;;;;;;7356072;19;20136;-68
2023/06/04 09:36:00;;;;;;;4.70;2.20;;;22.60;1.00;;;;;;7377606;19;20015;-67
2023/06/04 09:38:36;;;;;;;2.67;2.13;;;22.50;1.00;;;;;;7359096;19;20660;-67
2023/06/04 09:41:07;;;;;;;2.97;1.88;;;22.60;1.00;;;;;;7355801;19;20018;-67
2023/06/04 09:43:37;;;;;;;2.50;2.03;;;22.60;1.00;;;;;;7355781;19;20018;-67
2023/06/04 09:46:14;;;;;;;2.75;2.10;;;22.80;1.00;;;;;;7355175;19;20101;-68
2023/06/04 09:48:45;;;;;;;3.88;2.10;;;23.00;1.00;;;;;;7355305;19;20011;-67
2023/06/04 09:51:20;;;;;;;5.30;2.42;;;23.30;1.00;;;;;;7374224;19;20022;-71
2023/06/04 09:53:57;;;;;;;3.40;2.25;;;22.90;1.00;;;;;;7375409;19;20049;-68
2023/06/04 09:56:29;;;;;;;5.30;2.40;;;23.00;1.00;;;;;;7355673;19;20042;-67
2023/06/04 09:59:01;;;;;;;5.18;2.20;;;23.00;1.00;;;;;;7355321;19;20014;-68
2023/06/04 10:01:32;;;;;;;3.67;2.25;;;23.10;1.00;;;;;;7355581;19;20086;-68
2023/06/04 10:04:09;;;;;;;6.38;2.45;;;23.30;1.00;;;;;;7356265;19;20074;-68
2023/06/04 10:06:43;;;;;;;3.67;2.40;;;23.20;1.00;;;;;;7355006;19;20517;-68
2023/06/04 10:09:16;;;;;;;4.22;2.33;;;23.30;1.00;;;;;;7376311;19;20429;-68
2023/06/04 10:11:52;;;;;;;4.35;2.42;;;23.30;1.00;;;;;;7354163;19;20014;-68
2023/06/04 10:14:25;;;;;;;2.92;2.17;;;23.30;1.00;;;;;;7352554;19;20014;-67
2023/06/04 10:16:56;;;;;;;4.88;2.20;;;23.30;1.00;;;;;;7354931;19;20049;-68
2023/06/04 10:19:27;;;;;;;5.82;2.45;;;23.70;1.00;;;;;;7353219;19;20011;-69
2023/06/04 10:22:00;;;;;;;4.32;2.60;;;24.00;1.00;;;;;;7354651;19;20628;-68
2023/06/04 10:24:30;;;;;;;3.10;2.10;;;24.10;1.00;;;;;;7353853;19;20021;-68
2023/06/04 10:27:01;;;;;;;3.25;2.25;;;23.90;1.00;;;;;;7376864;19;20015;-69
2023/06/04 10:29:32;;;;;;;4.10;2.00;;;23.80;1.00;;;;;;7354983;19;20018;-68
2023/06/04 10:32:02;;;;;;;2.58;2.08;;;23.70;1.00;;;;;;7353750;19;20006;-68
2023/06/04 10:34:33;;;;;;;4.15;2.08;;;23.50;1.00;;;;;;7355296;19;20609;-68
2023/06/04 10:37:06;;;;;;;3.25;2.20;;;23.80;1.00;;;;;;7357606;19;20021;-68
2023/06/04 10:39:36;;;;;;;6.90;2.53;;;23.90;1.00;;;;;;7354551;19;20007;-68
2023/06/04 10:42:08;;;;;;;5.20;2.60;;;23.90;1.00;;;;;;7376082;19;20018;-68
2023/06/04 10:44:50;;;;;;;4.28;2.38;;;23.60;1.00;;;;;;7353081;19;20019;-68
2023/06/04 10:47:24;;;;;;;6.35;2.60;;;24.00;1.00;;;;;;7353152;19;20135;-68
2023/06/04 10:49:55;;;;;;;3.67;2.40;;;23.40;1.00;;;;;;7351961;19;20015;-69
2023/06/04 10:52:27;;;;;;;3.67;2.55;;;23.80;1.00;;;;;;7354380;19;20015;-69
2023/06/04 10:55:06;;;;;;;5.00;2.35;;;23.90;1.00;;;;;;7353372;19;20497;-69
2023/06/04 10:57:37;;;;;;;3.47;2.47;;;23.90;1.00;;;;;;7351292;19;20023;-68
2023/06/04 11:00:10;;;;;;;3.30;2.58;;;24.20;1.00;;;;;;7372546;19;20482;-68
2023/06/04 11:02:51;;;;;;;5.43;2.67;;;24.80;1.00;;;;;;7354153;19;20014;-67
2023/06/04 11:05:21;;;;;;;4.60;2.83;;;24.50;1.00;;;;;;7355191;19;20021;-69
2023/06/04 11:07:54;;;;;;;3.90;2.63;;;24.60;1.00;;;;;;7353332;19;20434;-69
2023/06/04 11:10:35;;;;;;;7.10;2.95;;;24.20;1.00;;;;;;7352046;19;20048;-68
2023/06/04 11:13:06;;;;;;;7.00;2.90;;;24.00;1.00;;;;;;7353704;19;20507;-67
2023/06/04 11:15:43;;;;;;;6.20;3.42;;;24.50;1.00;;;;;;7351832;19;20019;-68
2023/06/04 11:18:25;;;;;;;4.50;2.63;;;24.90;1.00;;;;;;7390130;19;20811;-69
2023/06/04 11:21:03;;;;;;;6.65;2.90;;;25.30;1.00;;;;;;7410079;19;20027;-69
2023/06/04 11:23:35;;;;;;;6.80;3.53;;;25.10;1.00;;;;;;7386088;19;20018;-68
2023/06/04 11:26:05;;;;;;;5.70;2.70;;;24.60;1.00;;;;;;7386808;19;20359;-69
2023/06/04 11:28:35;;;;;;;4.10;3.15;;;24.80;1.00;;;;;;7386406;19;20039;-69
2023/06/04 11:31:05;;;;;;;6.50;3.13;;;25.10;1.00;;;;;;7387978;19;20093;-69
2023/06/04 11:33:47;;;;;;;4.57;2.78;;;24.60;1.00;;;;;;7390321;19;20019;-69
2023/06/04 11:36:27;;;;;;;3.03;2.47;;;24.70;1.00;;;;;;7389043;19;20030;-69
2023/06/04 11:38:59;;;;;;;4.00;2.72;;;24.70;1.00;;;;;;7408911;19;20038;-68
2023/06/04 11:41:30;;;;;;;4.45;2.83;;;24.50;1.00;;;;;;7384970;19;20006;-69
2023/06/04 11:44:04;;;;;;;3.38;2.38;;;24.40;1.00;;;;;;7384665;19;20016;-68
2023/06/04 11:46:38;;;;;;;4.43;2.20;;;24.40;1.00;;;;;;7386749;19;20021;-68
2023/06/04 11:49:14;;;;;;;3.00;2.20;;;24.50;1.00;;;;;;7385662;19;20010;-68
2023/06/04 11:51:48;;;;;;;4.72;2.60;;;24.90;1.00;;;;;;7385643;19;20017;-69
2023/06/04 11:54:19;;;;;;;2.97;2.53;;;24.80;1.00;;;;;;7385622;19;20014;-67
2023/06/04 11:56:51;;;;;;;5.30;2.45;;;24.60;1.00;;;;;;7406800;19;20022;-67
2023/06/04 11:59:22;;;;;;;3.50;2.45;;;24.70;1.00;;;;;;7384924;19;20014;-68
2023/06/04 12:01:53;;;;;;;3.13;2.25;;;25.20;1.00;;;;;;7385687;19;20092;-68
2023/06/04 12:04:26;;;;;;;5.53;2.28;;;24.60;1.00;;;;;;7387158;19;20295;-68
2023/06/04 12:06:59;;;;;;;5.82;2.60;;;24.80;1.00;;;;;;7386236;19;20006;-67
2023/06/04 12:09:34;;;;;;;6.68;2.78;;;24.30;1.00;;;;;;7384398;19;20015;-67
2023/06/04 12:12:06;;;;;;;4.22;2.20;;;24.20;1.00;;;;;;7407030;19;20025;-68
2023/06/04 12:14:37;;;;;;;4.25;2.72;;;24.70;1.00;;;;;;7384422;19;20064;-68
2023/06/04 12:17:10;;;;;;;4.90;2.78;;;25.20;1.00;;;;;;7383988;19;20011;-68
2023/06/04 12:19:52;;;;;;;4.63;3.25;;;25.10;1.00;;;;;;7384267;19;20022;-68
2023/06/04 12:22:22;;;;;;;4.50;2.58;;;24.70;1.00;;;;;;7385515;19;20020;-67
2023/06/04 12:24:55;;;;;;;3.60;2.47;;;24.50;1.00;;;;;;7384378;19;20350;-68
2023/06/04 12:27:27;;;;;;;4.63;2.30;;;24.70;1.00;;;;;;7388848;19;20018;-67
2023/06/04 12:29:59;;;;;;;2.92;2.03;;;24.60;1.00;;;;;;7377093;19;20471;-68
2023/06/04 12:32:29;;;;;;;3.75;2.40;;;25.00;1.00;;;;;;7360470;19;20474;-68
2023/06/04 12:35:02;;;;;;;2.85;2.33;;;24.70;1.00;;;;;;7355503;19;20516;-68
2023/06/04 12:37:32;;;;;;;3.70;2.40;;;25.00;1.00;;;;;;7355900;19;20112;-68
2023/06/04 12:40:03;;;;;;;5.70;2.60;;;24.90;1.00;;;;;;7355388;19;20466;-68
2023/06/04 12:42:34;;;;;;;4.70;2.72;;;24.30;1.00;;;;;;7357340;19;20022;-69
2023/06/04 12:45:04;;;;;;;6.15;2.58;;;25.00;1.00;;;;;;7377622;19;20022;-68
2023/06/04 12:47:33;;;;;;;7.40;2.25;;;25.20;1.00;;;;;;7356114;19;20016;-67
2023/06/04 12:50:07;;;;;;;5.78;2.25;;;25.60;1.00;;;;;;7353780;19;20016;-68
2023/06/04 12:52:37;;;;;;;6.28;2.20;;;25.10;1.00;;;;;;7355338;19;20426;-68
2023/06/04 12:55:09;;;;;;;3.42;2.67;;;25.20;1.00;;;;;;7354833;19;20040;-67
2023/06/04 12:57:39;;;;;;;4.40;2.40;;;24.80;1.00;;;;;;7356078;19;20018;-68
2023/06/04 13:00:10;;;;;;;3.67;2.53;;;25.00;1.00;;;;;;7374945;19;20014;-69
2023/06/04 13:02:40;;;;;;;5.57;2.60;;;25.10;1.00;;;;;;7356221;19;20014;-69
2023/06/04 13:05:13;;;;;;;3.75;2.60;;;25.30;1.00;;;;;;7356661;19;20010;-69
2023/06/04 13:07:43;;;;;;;4.25;2.22;;;25.30;1.00;;;;;;7355899;19;20017;-69
2023/06/04 13:10:13;;;;;;;4.90;2.35;;;25.30;1.00;;;;;;7354058;19;20033;-69
2023/06/04 13:12:43;;;;;;;5.90;2.78;;;25.10;1.00;;;;;;7355352;19;20011;-68
2023/06/04 13:15:13;;;;;;;5.30;2.35;;;24.70;1.00;;;;;;7375445;19;20498;-68
2023/06/04 13:17:43;;;;;;;3.78;2.42;;;25.20;1.00;;;;;;7354231;19;20010;-68
2023/06/04 13:20:16;;;;;;;4.88;2.67;;;24.60;1.00;;;;;;7352661;19;20014;-68
2023/06/04 13:22:47;;;;;;;3.60;2.53;;;24.70;1.00;;;;;;7358330;19;20051;-68